Time,TemperatureF,DewpointF,PressureIn,WindDirection,WindDirectionDegrees,WindSpeedMPH,WindSpeedGustMPH,Humidity,HourlyPrecipIn,Conditions,Clouds,dailyrainin,SoftwareType,DateUTC
2013-10-23 00:04:00,55.2,54.9,29.59,NNE,22,0.0,-999.0,99,-99.99,,,0.00,Acu-Link.com,2013-10-23 04:04:00,
2013-10-23 00:19:00,55.2,54.9,29.59,NNE,22,0.0,-999.0,99,-99.99,,,0.00,Acu-Link.com,2013-10-23 04:19:00,
2013-10-23 00:34:00,55.6,55.3,29.58,NNE,22,0.0,-999.0,99,-99.99,,,0.00,Acu-Link.com,2013-10-23 04:34:00,
2013-10-23 00:49:00,55.2,54.9,29.58,NNE,22,0.0,-999.0,99,-99.99,,,0.00,Acu-Link.com,2013-10-23 04:49:00,
2013-10-23 01:04:00,55.2,54.9,29.57,NNE,22,0.0,-999.0,99,-99.99,,,0.00,Acu-Link.com,2013-10-23 05:04:00,
2013-10-23 01:20:00,55.4,55.1,29.57,NNE,22,0.0,-999.0,99,-99.99,,,0.00,Acu-Link.com,2013-10-23 05:20:00,
2013-10-23 01:35:00,55.6,55.3,29.56,NNE,22,0.0,-999.0,99,-99.99,,,0.00,Acu-Link.com,2013-10-23 05:35:00,
2013-10-23 01:50:00,55.8,55.5,29.56,WNW,292,0.0,-999.0,99,-99.99,,,0.00,Acu-Link.com,2013-10-23 05:50:00,
2013-10-23 02:05:00,55.9,55.6,29.56,NNE,22,0.0,-999.0,99,-99.99,,,0.00,Acu-Link.com,2013-10-23 06:05:00,
2013-10-23 02:21:00,57.0,56.7,29.55,NNW,337,0.0,-999.0,99,-99.99,,,0.00,Acu-Link.com,2013-10-23 06:21:00,
2013-10-23 02:36:00,56.8,56.5,29.55,West,270,0.0,-999.0,99,-99.99,,,0.00,Acu-Link.com,2013-10-23 06:36:00,
2013-10-23 02:51:00,57.4,57.1,29.54,West,270,0.0,-999.0,99,-99.99,,,0.00,Acu-Link.com,2013-10-23 06:51:00,
2013-10-23 03:08:00,57.7,57.4,29.54,NW,315,1.1,-999.0,99,-99.99,,,0.00,Acu-Link.com,2013-10-23 07:08:00,
2013-10-23 03:23:00,57.9,57.6,29.54,NW,315,2.2,-999.0,99,-99.99,,,0.00,Acu-Link.com,2013-10-23 07:23:00,
2013-10-23 03:38:00,57.9,57.6,29.54,WSW,247,0.0,-999.0,99,-99.99,,,0.00,Acu-Link.com,2013-10-23 07:38:00,
2013-10-23 03:53:00,57.9,57.6,29.54,SW,225,0.0,-999.0,99,-99.99,,,0.00,Acu-Link.com,2013-10-23 07:53:00,
2013-10-23 04:08:00,57.9,57.6,29.53,WNW,292,0.0,-999.0,99,-99.99,,,0.00,Acu-Link.com,2013-10-23 08:08:00,
2013-10-23 04:24:00,57.9,57.6,29.53,WNW,292,0.0,-999.0,99,-99.99,,,0.00,Acu-Link.com,2013-10-23 08:24:00,
2013-10-23 04:39:00,57.6,57.3,29.53,NNE,22,0.0,-999.0,99,-99.99,,,0.00,Acu-Link.com,2013-10-23 08:39:00,
2013-10-23 04:54:00,57.6,57.3,29.53,NNW,337,0.0,-999.0,99,-99.99,,,0.00,Acu-Link.com,2013-10-23 08:54:00,
2013-10-23 05:09:00,57.6,57.3,29.52,NW,315,0.0,-999.0,99,-99.99,,,0.00,Acu-Link.com,2013-10-23 09:09:00,
2013-10-23 05:24:00,57.7,57.4,29.52,NW,315,0.0,-999.0,99,-99.99,,,0.00,Acu-Link.com,2013-10-23 09:24:00,
2013-10-23 05:39:00,57.7,57.4,29.51,NW,315,0.0,-999.0,99,-99.99,,,0.00,Acu-Link.com,2013-10-23 09:39:00,
2013-10-23 05:54:00,57.4,57.1,29.52,WNW,292,0.0,-999.0,99,-99.99,,,0.00,Acu-Link.com,2013-10-23 09:54:00,
2013-10-23 06:09:00,57.0,56.7,29.51,WNW,292,0.0,-999.0,99,-99.99,,,0.00,Acu-Link.com,2013-10-23 10:09:00,
2013-10-23 06:24:00,56.8,56.5,29.52,WNW,292,1.1,-999.0,99,-99.99,,,0.00,Acu-Link.com,2013-10-23 10:24:00,
2013-10-23 06:40:00,56.5,56.2,29.53,WNW,292,0.0,-999.0,99,-99.99,,,0.00,Acu-Link.com,2013-10-23 10:40:00,
2013-10-23 06:55:00,55.8,55.5,29.52,WNW,292,0.0,-999.0,99,-99.99,,,0.00,Acu-Link.com,2013-10-23 10:55:00,
2013-10-23 07:10:00,55.0,54.7,29.53,WNW,292,0.0,-999.0,99,-99.99,,,0.00,Acu-Link.com,2013-10-23 11:10:00,
2013-10-23 07:25:00,54.5,54.2,29.53,WNW,292,0.0,-999.0,99,-99.99,,,0.00,Acu-Link.com,2013-10-23 11:25:00,
2013-10-23 07:40:00,54.0,53.7,29.54,WNW,292,0.0,-999.0,99,-99.99,,,0.00,Acu-Link.com,2013-10-23 11:40:00,
2013-10-23 07:55:00,53.8,53.5,29.54,WNW,292,0.0,-999.0,99,-99.99,,,0.00,Acu-Link.com,2013-10-23 11:55:00,
2013-10-23 08:10:00,53.4,53.1,29.54,WNW,292,0.0,-999.0,99,-99.99,,,0.00,Acu-Link.com,2013-10-23 12:10:00,
2013-10-23 08:25:00,53.4,53.1,29.55,WNW,292,0.0,-999.0,99,-99.99,,,0.00,Acu-Link.com,2013-10-23 12:25:00,
2013-10-23 08:40:00,53.6,53.3,29.55,WNW,292,0.0,-999.0,99,-99.99,,,0.00,Acu-Link.com,2013-10-23 12:40:00,
2013-10-23 08:56:00,54.0,53.4,29.56,West,270,2.2,-999.0,98,-99.99,,,0.00,Acu-Link.com,2013-10-23 12:56:00,
2013-10-23 09:11:00,54.5,52.8,29.56,West,270,1.7,-999.0,94,-99.99,,,0.00,Acu-Link.com,2013-10-23 13:11:00,
2013-10-23 09:26:00,56.1,51.7,29.56,West,270,0.0,-999.0,85,-99.99,,,0.00,Acu-Link.com,2013-10-23 13:26:00,
2013-10-23 09:41:00,56.7,51.3,29.56,WSW,247,0.0,-999.0,82,-99.99,,,0.00,Acu-Link.com,2013-10-23 13:41:00,
2013-10-23 09:56:00,58.6,50.0,29.56,West,270,0.0,-999.0,73,-99.99,,,0.00,Acu-Link.com,2013-10-23 13:56:00,
2013-10-23 10:11:00,59.5,49.3,29.56,North,0,2.7,-999.0,69,-99.99,,,0.00,Acu-Link.com,2013-10-23 14:11:00,
2013-10-23 10:26:00,59.2,47.0,29.56,West,270,2.7,-999.0,64,-99.99,,,0.00,Acu-Link.com,2013-10-23 14:26:00,
2013-10-23 10:41:00,60.8,48.5,29.56,West,270,1.1,-999.0,64,-99.99,,,0.00,Acu-Link.com,2013-10-23 14:41:00,
2013-10-23 10:56:00,60.4,47.7,29.56,SW,225,1.7,-999.0,63,-99.99,,,0.00,Acu-Link.com,2013-10-23 14:56:00,
2013-10-23 11:12:00,61.3,46.8,29.56,SE,135,1.7,-999.0,59,-99.99,,,0.00,Acu-Link.com,2013-10-23 15:12:00,
2013-10-23 11:27:00,62.4,47.4,29.55,North,0,0.0,-999.0,58,-99.99,,,0.00,Acu-Link.com,2013-10-23 15:27:00,
2013-10-23 11:42:00,62.8,44.9,29.54,West,270,3.2,-999.0,52,-99.99,,,0.00,Acu-Link.com,2013-10-23 15:42:00,
2013-10-23 11:57:00,63.5,45.0,29.54,West,270,2.7,-999.0,51,-99.99,,,0.00,Acu-Link.com,2013-10-23 15:57:00,
2013-10-23 12:12:00,64.6,42.2,29.55,WNW,292,2.7,-999.0,44,-99.99,,,0.00,Acu-Link.com,2013-10-23 16:12:00,
2013-10-23 12:27:00,64.2,41.8,29.55,WNW,292,2.2,-999.0,44,-99.99,,,0.00,Acu-Link.com,2013-10-23 16:27:00,
2013-10-23 12:42:00,63.7,42.0,29.55,SSW,202,2.7,-999.0,45,-99.99,,,0.00,Acu-Link.com,2013-10-23 16:42:00,
2013-10-23 12:57:00,63.5,42.3,29.55,WSW,247,2.2,-999.0,46,-99.99,,,0.00,Acu-Link.com,2013-10-23 16:57:00,
2013-10-23 13:12:00,65.1,41.4,29.55,West,270,3.2,-999.0,42,-99.99,,,0.00,Acu-Link.com,2013-10-23 17:12:00,
2013-10-23 13:28:00,64.9,40.6,29.55,West,270,2.7,-999.0,41,-99.99,,,0.00,Acu-Link.com,2013-10-23 17:28:00,
2013-10-23 13:43:00,65.5,41.8,29.54,NW,315,2.2,-999.0,42,-99.99,,,0.00,Acu-Link.com,2013-10-23 17:43:00,
2013-10-23 13:58:00,66.6,39.5,29.54,WNW,292,3.2,-999.0,37,-99.99,,,0.00,Acu-Link.com,2013-10-23 17:58:00,
2013-10-23 14:13:00,66.6,38.8,29.54,SSW,202,3.2,-999.0,36,-99.99,,,0.00,Acu-Link.com,2013-10-23 18:13:00,
2013-10-23 14:28:00,66.2,37.7,29.54,West,270,1.7,-999.0,35,-99.99,,,0.00,Acu-Link.com,2013-10-23 18:28:00,
2013-10-23 14:43:00,66.2,37.0,29.54,West,270,2.7,-999.0,34,-99.99,,,0.00,Acu-Link.com,2013-10-23 18:43:00,
2013-10-23 14:58:00,65.7,35.0,29.55,NNE,22,5.8,-999.0,32,-99.99,,,0.00,Acu-Link.com,2013-10-23 18:58:00,
2013-10-23 15:14:00,66.4,37.9,29.55,WNW,292,1.7,-999.0,35,-99.99,,,0.00,Acu-Link.com,2013-10-23 19:14:00,
2013-10-23 15:29:00,66.2,37.0,29.55,WNW,292,2.7,-999.0,34,-99.99,,,0.00,Acu-Link.com,2013-10-23 19:29:00,
2013-10-23 15:44:00,65.8,36.6,29.56,West,270,1.7,-999.0,34,-99.99,,,0.00,Acu-Link.com,2013-10-23 19:44:00,
2013-10-23 15:59:00,65.8,36.6,29.57,NNW,337,2.7,-999.0,34,-99.99,,,0.00,Acu-Link.com,2013-10-23 19:59:00,
2013-10-23 16:14:00,65.3,36.2,29.57,NNW,337,2.7,-999.0,34,-99.99,,,0.00,Acu-Link.com,2013-10-23 20:14:00,
2013-10-23 16:29:00,64.4,38.2,29.58,NE,45,4.7,-999.0,38,-99.99,,,0.00,Acu-Link.com,2013-10-23 20:29:00,
2013-10-23 16:44:00,63.5,38.1,29.59,NNW,337,2.7,-999.0,39,-99.99,,,0.00,Acu-Link.com,2013-10-23 20:44:00,
2013-10-23 16:59:00,62.6,37.9,29.60,NW,315,4.2,-999.0,40,-99.99,,,0.00,Acu-Link.com,2013-10-23 20:59:00,
2013-10-23 17:14:00,61.3,38.0,29.61,WNW,292,4.7,-999.0,42,-99.99,,,0.00,Acu-Link.com,2013-10-23 21:14:00,
2013-10-23 17:30:00,59.9,37.4,29.63,NNW,337,3.2,-999.0,43,-99.99,,,0.00,Acu-Link.com,2013-10-23 21:30:00,
2013-10-23 17:45:00,58.8,36.9,29.63,NNE,22,4.2,-999.0,44,-99.99,,,0.00,Acu-Link.com,2013-10-23 21:45:00,
2013-10-23 18:00:00,57.9,36.1,29.64,NE,45,4.7,-999.0,44,-99.99,,,0.00,Acu-Link.com,2013-10-23 22:00:00,
2013-10-23 18:15:00,56.8,36.2,29.66,West,270,3.2,-999.0,46,-99.99,,,0.00,Acu-Link.com,2013-10-23 22:15:00,
2013-10-23 18:30:00,55.9,34.9,29.67,NW,315,2.2,-999.0,45,-99.99,,,0.00,Acu-Link.com,2013-10-23 22:30:00,
2013-10-23 18:45:00,54.9,34.0,29.68,North,0,2.2,-999.0,45,-99.99,,,0.00,Acu-Link.com,2013-10-23 22:45:00,
2013-10-23 19:00:00,54.0,34.2,29.69,NNE,22,4.2,-999.0,47,-99.99,,,0.00,Acu-Link.com,2013-10-23 23:00:00,
2013-10-23 19:15:00,53.6,34.4,29.70,NNE,22,5.8,-999.0,48,-99.99,,,0.00,Acu-Link.com,2013-10-23 23:15:00,
2013-10-23 19:30:00,52.7,33.6,29.71,NNW,337,3.7,-999.0,48,-99.99,,,0.00,Acu-Link.com,2013-10-23 23:30:00,
2013-10-23 19:46:00,51.8,33.8,29.72,NNW,337,4.2,-999.0,50,-99.99,,,0.00,Acu-Link.com,2013-10-23 23:46:00,
2013-10-23 20:01:00,51.1,33.6,29.74,NE,45,2.2,-999.0,51,-99.99,,,0.00,Acu-Link.com,2013-10-24 00:01:00,
2013-10-23 20:16:00,50.2,33.3,29.75,NW,315,1.7,-999.0,52,-99.99,,,0.00,Acu-Link.com,2013-10-24 00:16:00,
2013-10-23 20:31:00,49.6,33.2,29.76,NNW,337,3.7,-999.0,53,-99.99,,,0.00,Acu-Link.com,2013-10-24 00:31:00,
2013-10-23 20:46:00,49.1,33.2,29.76,NNW,337,2.7,-999.0,54,-99.99,,,0.00,Acu-Link.com,2013-10-24 00:46:00,
2013-10-23 21:01:00,48.9,33.0,29.76,NNW,337,2.7,-999.0,54,-99.99,,,0.00,Acu-Link.com,2013-10-24 01:01:00,
2013-10-23 21:16:00,48.6,32.7,29.77,NNE,22,2.2,-999.0,54,-99.99,,,0.00,Acu-Link.com,2013-10-24 01:16:00,
2013-10-23 21:31:00,48.2,32.3,29.78,NNW,337,2.2,-999.0,54,-99.99,,,0.00,Acu-Link.com,2013-10-24 01:31:00,
2013-10-23 21:46:00,47.8,32.0,29.79,North,0,1.7,-999.0,54,-99.99,,,0.00,Acu-Link.com,2013-10-24 01:46:00,
2013-10-23 22:02:00,47.5,32.1,29.79,West,270,1.7,-999.0,55,-99.99,,,0.00,Acu-Link.com,2013-10-24 02:02:00,
2013-10-23 22:17:00,47.1,32.7,29.79,NNW,337,0.0,-999.0,57,-99.99,,,0.00,Acu-Link.com,2013-10-24 02:17:00,
2013-10-23 22:32:00,46.8,33.2,29.80,NNW,337,2.7,-999.0,59,-99.99,,,0.00,Acu-Link.com,2013-10-24 02:32:00,
2013-10-23 22:47:00,46.4,33.3,29.81,WSW,247,0.0,-999.0,60,-99.99,,,0.00,Acu-Link.com,2013-10-24 02:47:00,
2013-10-23 23:02:00,45.7,33.4,29.82,WSW,247,0.0,-999.0,62,-99.99,,,0.00,Acu-Link.com,2013-10-24 03:02:00,
2013-10-23 23:17:00,45.1,33.7,29.82,WSW,247,0.0,-999.0,64,-99.99,,,0.00,Acu-Link.com,2013-10-24 03:17:00,
2013-10-23 23:32:00,44.4,34.9,29.82,East,90,1.1,-999.0,69,-99.99,,,0.00,Acu-Link.com,2013-10-24 03:32:00,
2013-10-23 23:47:00,43.7,33.8,29.83,WSW,247,0.0,-999.0,68,-99.99,,,0.00,Acu-Link.com,2013-10-24 03:47:00,